sensor_id;sensor_type;location;lat;lon;timestamp;temperature;humidity
12481;DHT22;6305;48.398;11.762;2023-03-01T00:01:03;1.10;99.90
12481;DHT22;6305;48.398;11.762;2023-03-01T00:03:31;1.10;99.90
12481;DHT22;6305;48.398;11.762;2023-03-01T00:05:58;1.10;99.90
12481;DHT22;6305;48.398;11.762;2023-03-01T00:08:26;1.10;99.90
12481;DHT22;6305;48.398;11.762;2023-03-01T00:11:00;1.10;99.90
12481;DHT22;6305;48.398;11.762;2023-03-01T00:13:27;1.10;99.90
12481;DHT22;6305;48.398;11.762;2023-03-01T00:15:54;1.10;99.90
12481;DHT22;6305;48.398;11.762;2023-03-01T00:18:23;1.00;99.90
12481;DHT22;6305;48.398;11.762;2023-03-01T00:20:50;1.00;99.90
12481;DHT22;6305;48.398;11.762;2023-03-01T00:23:18;1.00;99.90
12481;DHT22;6305;48.398;11.762;2023-03-01T00:25:44;1.00;99.90
12481;DHT22;6305;48.398;11.762;2023-03-01T00:28:11;1.00;99.90
12481;DHT22;6305;48.398;11.762;2023-03-01T00:30:39;1.00;99.90
12481;DHT22;6305;48.398;11.762;2023-03-01T00:33:06;1.00;99.90
12481;DHT22;6305;48.398;11.762;2023-03-01T00:35:35;1.00;99.90
12481;DHT22;6305;48.398;11.762;2023-03-01T00:38:02;1.00;99.90
12481;DHT22;6305;48.398;11.762;2023-03-01T00:40:31;1.00;99.90
12481;DHT22;6305;48.398;11.762;2023-03-01T00:42:58;1.00;99.90
12481;DHT22;6305;48.398;11.762;2023-03-01T00:45:26;1.00;99.90
12481;DHT22;6305;48.398;11.762;2023-03-01T00:47:54;0.90;99.90
12481;DHT22;6305;48.398;11.762;2023-03-01T00:50:20;0.90;99.90
12481;DHT22;6305;48.398;11.762;2023-03-01T00:52:52;0.90;99.90
12481;DHT22;6305;48.398;11.762;2023-03-01T00:55:19;0.90;99.90
12481;DHT22;6305;48.398;11.762;2023-03-01T00:57:46;0.90;99.90
12481;DHT22;6305;48.398;11.762;2023-03-01T01:00:14;0.90;99.90
12481;DHT22;6305;48.398;11.762;2023-03-01T01:02:42;0.90;99.90
12481;DHT22;6305;48.398;11.762;2023-03-01T01:05:09;0.90;99.90
12481;DHT22;6305;48.398;11.762;2023-03-01T01:07:36;0.90;99.90
12481;DHT22;6305;48.398;11.762;2023-03-01T01:10:06;0.90;99.90
12481;DHT22;6305;48.398;11.762;2023-03-01T01:12:33;0.90;99.90
12481;DHT22;6305;48.398;11.762;2023-03-01T01:15:00;0.90;99.90
12481;DHT22;6305;48.398;11.762;2023-03-01T01:17:27;0.90;99.90
12481;DHT22;6305;48.398;11.762;2023-03-01T01:19:54;0.90;99.90
12481;DHT22;6305;48.398;11.762;2023-03-01T01:22:21;0.90;99.90
12481;DHT22;6305;48.398;11.762;2023-03-01T01:24:48;0.90;99.90
12481;DHT22;6305;48.398;11.762;2023-03-01T01:27:16;0.90;99.90
12481;DHT22;6305;48.398;11.762;2023-03-01T01:29:43;0.90;99.90
12481;DHT22;6305;48.398;11.762;2023-03-01T01:32:10;0.80;99.90
12481;DHT22;6305;48.398;11.762;2023-03-01T01:34:37;0.80;99.90
12481;DHT22;6305;48.398;11.762;2023-03-01T01:37:04;0.80;99.90
12481;DHT22;6305;48.398;11.762;2023-03-01T01:39:33;0.80;99.90
12481;DHT22;6305;48.398;11.762;2023-03-01T01:42:01;0.80;99.90
12481;DHT22;6305;48.398;11.762;2023-03-01T01:44:30;0.70;99.90
12481;DHT22;6305;48.398;11.762;2023-03-01T01:46:58;0.70;99.90
12481;DHT22;6305;48.398;11.762;2023-03-01T01:49:32;0.80;99.90
12481;DHT22;6305;48.398;11.762;2023-03-01T01:52:06;0.80;99.90
12481;DHT22;6305;48.398;11.762;2023-03-01T01:54:40;0.80;99.90
12481;DHT22;6305;48.398;11.762;2023-03-01T01:57:12;0.80;99.90
12481;DHT22;6305;48.398;11.762;2023-03-01T01:59:45;0.70;99.90
12481;DHT22;6305;48.398;11.762;2023-03-01T02:02:14;0.70;99.90
12481;DHT22;6305;48.398;11.762;2023-03-01T02:04:42;0.70;99.90
12481;DHT22;6305;48.398;11.762;2023-03-01T02:07:14;0.70;99.90
12481;DHT22;6305;48.398;11.762;2023-03-01T02:09:46;0.70;99.90
12481;DHT22;6305;48.398;11.762;2023-03-01T02:12:14;0.70;99.90
12481;DHT22;6305;48.398;11.762;2023-03-01T02:14:42;0.70;99.90
12481;DHT22;6305;48.398;11.762;2023-03-01T02:17:09;0.70;99.90
12481;DHT22;6305;48.398;11.762;2023-03-01T02:19:47;0.70;99.90
12481;DHT22;6305;48.398;11.762;2023-03-01T02:22:22;0.60;99.90
12481;DHT22;6305;48.398;11.762;2023-03-01T02:25:00;0.60;99.90
12481;DHT22;6305;48.398;11.762;2023-03-01T02:27:38;0.60;99.90
12481;DHT22;6305;48.398;11.762;2023-03-01T02:30:10;0.50;99.90
12481;DHT22;6305;48.398;11.762;2023-03-01T02:32:39;0.50;99.90
12481;DHT22;6305;48.398;11.762;2023-03-01T02:35:09;0.50;99.90
12481;DHT22;6305;48.398;11.762;2023-03-01T02:37:37;0.50;99.90
12481;DHT22;6305;48.398;11.762;2023-03-01T02:40:08;0.50;99.90
12481;DHT22;6305;48.398;11.762;2023-03-01T02:42:43;0.40;99.90
12481;DHT22;6305;48.398;11.762;2023-03-01T02:45:13;0.40;99.90
12481;DHT22;6305;48.398;11.762;2023-03-01T02:47:41;0.40;99.90
12481;DHT22;6305;48.398;11.762;2023-03-01T02:50:19;0.30;99.90
12481;DHT22;6305;48.398;11.762;2023-03-01T02:52:57;0.40;99.90
12481;DHT22;6305;48.398;11.762;2023-03-01T02:55:26;0.30;99.90
12481;DHT22;6305;48.398;11.762;2023-03-01T02:57:53;0.30;99.90
12481;DHT22;6305;48.398;11.762;2023-03-01T03:00:26;0.20;99.90
12481;DHT22;6305;48.398;11.762;2023-03-01T03:02:55;0.20;99.90
12481;DHT22;6305;48.398;11.762;2023-03-01T03:05:25;0.20;99.90
12481;DHT22;6305;48.398;11.762;2023-03-01T03:07:57;0.10;99.90
12481;DHT22;6305;48.398;11.762;2023-03-01T03:10:26;-0.10;99.90
12481;DHT22;6305;48.398;11.762;2023-03-01T03:12:55;-0.20;99.90
12481;DHT22;6305;48.398;11.762;2023-03-01T03:15:25;-0.50;99.90
12481;DHT22;6305;48.398;11.762;2023-03-01T03:17:54;-0.80;99.90
12481;DHT22;6305;48.398;11.762;2023-03-01T03:20:25;-1.10;99.90
12481;DHT22;6305;48.398;11.762;2023-03-01T03:22:54;-1.30;99.90
12481;DHT22;6305;48.398;11.762;2023-03-01T03:25:22;-1.40;99.90
12481;DHT22;6305;48.398;11.762;2023-03-01T03:27:51;-1.60;99.90
12481;DHT22;6305;48.398;11.762;2023-03-01T03:30:24;-1.70;99.90
12481;DHT22;6305;48.398;11.762;2023-03-01T03:32:53;-1.90;99.90
12481;DHT22;6305;48.398;11.762;2023-03-01T03:35:21;-2.00;99.90
12481;DHT22;6305;48.398;11.762;2023-03-01T03:37:51;-2.10;99.90
12481;DHT22;6305;48.398;11.762;2023-03-01T03:40:34;-2.20;99.90
12481;DHT22;6305;48.398;11.762;2023-03-01T03:43:02;-2.30;99.90
12481;DHT22;6305;48.398;11.762;2023-03-01T03:45:30;-2.30;99.90
12481;DHT22;6305;48.398;11.762;2023-03-01T03:47:58;-2.40;99.90
12481;DHT22;6305;48.398;11.762;2023-03-01T03:50:25;-2.40;99.90
12481;DHT22;6305;48.398;11.762;2023-03-01T03:52:52;-2.50;99.90
12481;DHT22;6305;48.398;11.762;2023-03-01T03:55:19;-2.50;99.90
12481;DHT22;6305;48.398;11.762;2023-03-01T03:57:47;-2.60;99.90
12481;DHT22;6305;48.398;11.762;2023-03-01T04:00:19;-2.70;99.90
12481;DHT22;6305;48.398;11.762;2023-03-01T04:02:48;-2.70;99.90
12481;DHT22;6305;48.398;11.762;2023-03-01T04:05:17;-2.70;99.90
12481;DHT22;6305;48.398;11.762;2023-03-01T04:07:45;-2.80;99.90
12481;DHT22;6305;48.398;11.762;2023-03-01T04:10:13;-2.80;99.90
12481;DHT22;6305;48.398;11.762;2023-03-01T04:12:40;-2.90;99.90
12481;DHT22;6305;48.398;11.762;2023-03-01T04:15:10;-2.90;99.90
12481;DHT22;6305;48.398;11.762;2023-03-01T04:17:39;-2.90;99.90
12481;DHT22;6305;48.398;11.762;2023-03-01T04:20:10;-2.90;99.90
12481;DHT22;6305;48.398;11.762;2023-03-01T04:22:38;-2.90;99.90
12481;DHT22;6305;48.398;11.762;2023-03-01T04:25:06;-2.90;99.90
12481;DHT22;6305;48.398;11.762;2023-03-01T04:27:33;-3.00;99.90
12481;DHT22;6305;48.398;11.762;2023-03-01T04:30:02;-3.00;99.90
12481;DHT22;6305;48.398;11.762;2023-03-01T04:32:29;-3.00;99.90
12481;DHT22;6305;48.398;11.762;2023-03-01T04:34:57;-3.00;99.90
12481;DHT22;6305;48.398;11.762;2023-03-01T04:37:25;-3.10;99.90
12481;DHT22;6305;48.398;11.762;2023-03-01T04:39:53;-3.10;99.90
12481;DHT22;6305;48.398;11.762;2023-03-01T04:42:20;-3.10;99.90
12481;DHT22;6305;48.398;11.762;2023-03-01T04:44:47;-3.10;99.90
12481;DHT22;6305;48.398;11.762;2023-03-01T04:47:16;-3.20;99.90
12481;DHT22;6305;48.398;11.762;2023-03-01T04:49:43;-3.20;99.90
12481;DHT22;6305;48.398;11.762;2023-03-01T04:52:10;-3.20;99.90
12481;DHT22;6305;48.398;11.762;2023-03-01T04:54:38;-3.30;99.90
12481;DHT22;6305;48.398;11.762;2023-03-01T04:57:05;-3.30;99.90
12481;DHT22;6305;48.398;11.762;2023-03-01T04:59:32;-3.30;99.90
12481;DHT22;6305;48.398;11.762;2023-03-01T05:02:01;-3.20;99.90
12481;DHT22;6305;48.398;11.762;2023-03-01T05:04:28;-3.30;99.90
12481;DHT22;6305;48.398;11.762;2023-03-01T05:06:57;-3.30;99.90
12481;DHT22;6305;48.398;11.762;2023-03-01T05:09:24;-3.30;99.90
12481;DHT22;6305;48.398;11.762;2023-03-01T05:11:52;-3.30;99.90
12481;DHT22;6305;48.398;11.762;2023-03-01T05:14:19;-3.30;99.90
12481;DHT22;6305;48.398;11.762;2023-03-01T05:16:46;-3.30;99.90
12481;DHT22;6305;48.398;11.762;2023-03-01T05:19:13;-3.40;99.90
12481;DHT22;6305;48.398;11.762;2023-03-01T05:21:41;-3.40;99.90
12481;DHT22;6305;48.398;11.762;2023-03-01T05:24:22;-3.50;99.90
12481;DHT22;6305;48.398;11.762;2023-03-01T05:26:49;-3.50;99.90
12481;DHT22;6305;48.398;11.762;2023-03-01T05:29:18;-3.50;99.90
12481;DHT22;6305;48.398;11.762;2023-03-01T05:31:51;-3.50;99.90
12481;DHT22;6305;48.398;11.762;2023-03-01T05:34:19;-3.50;99.90
12481;DHT22;6305;48.398;11.762;2023-03-01T05:36:48;-3.50;99.90
12481;DHT22;6305;48.398;11.762;2023-03-01T05:39:20;-3.50;99.90
12481;DHT22;6305;48.398;11.762;2023-03-01T05:41:48;-3.50;99.90
12481;DHT22;6305;48.398;11.762;2023-03-01T05:44:19;-3.50;99.90
12481;DHT22;6305;48.398;11.762;2023-03-01T05:46:47;-3.60;99.90
12481;DHT22;6305;48.398;11.762;2023-03-01T05:49:15;-3.60;99.90
12481;DHT22;6305;48.398;11.762;2023-03-01T05:51:43;-3.50;99.90
12481;DHT22;6305;48.398;11.762;2023-03-01T05:54:14;-3.50;99.90
12481;DHT22;6305;48.398;11.762;2023-03-01T05:56:41;-3.50;99.90
12481;DHT22;6305;48.398;11.762;2023-03-01T05:59:08;-3.50;99.90
12481;DHT22;6305;48.398;11.762;2023-03-01T06:01:37;-3.50;99.90
12481;DHT22;6305;48.398;11.762;2023-03-01T06:04:04;-3.50;99.90
12481;DHT22;6305;48.398;11.762;2023-03-01T06:06:34;-3.40;99.90
12481;DHT22;6305;48.398;11.762;2023-03-01T06:09:03;-3.40;99.90
12481;DHT22;6305;48.398;11.762;2023-03-01T06:11:30;-3.40;99.90
12481;DHT22;6305;48.398;11.762;2023-03-01T06:13:57;-3.30;99.90
12481;DHT22;6305;48.398;11.762;2023-03-01T06:16:25;-3.30;99.90
12481;DHT22;6305;48.398;11.762;2023-03-01T06:18:53;-3.20;99.90
12481;DHT22;6305;48.398;11.762;2023-03-01T06:21:20;-3.20;99.90
12481;DHT22;6305;48.398;11.762;2023-03-01T06:23:47;-3.10;99.90
12481;DHT22;6305;48.398;11.762;2023-03-01T06:26:14;-3.00;99.90
12481;DHT22;6305;48.398;11.762;2023-03-01T06:28:48;-2.80;99.90
12481;DHT22;6305;48.398;11.762;2023-03-01T06:31:17;-2.70;99.90
12481;DHT22;6305;48.398;11.762;2023-03-01T06:33:44;-2.60;99.90
12481;DHT22;6305;48.398;11.762;2023-03-01T06:36:13;-2.50;99.90
12481;DHT22;6305;48.398;11.762;2023-03-01T06:38:40;-2.30;99.90
12481;DHT22;6305;48.398;11.762;2023-03-01T06:41:07;-2.20;99.90
12481;DHT22;6305;48.398;11.762;2023-03-01T06:43:34;-2.00;99.90
12481;DHT22;6305;48.398;11.762;2023-03-01T06:46:04;-1.80;99.90
12481;DHT22;6305;48.398;11.762;2023-03-01T06:48:32;-1.70;99.90
12481;DHT22;6305;48.398;11.762;2023-03-01T06:50:59;-1.50;99.90
12481;DHT22;6305;48.398;11.762;2023-03-01T06:53:29;-1.40;99.90
12481;DHT22;6305;48.398;11.762;2023-03-01T06:55:56;-1.20;99.90
12481;DHT22;6305;48.398;11.762;2023-03-01T06:58:24;-1.10;99.90
12481;DHT22;6305;48.398;11.762;2023-03-01T07:00:51;-0.90;99.90
12481;DHT22;6305;48.398;11.762;2023-03-01T07:03:19;-0.70;99.90
12481;DHT22;6305;48.398;11.762;2023-03-01T07:05:48;-0.50;99.90
12481;DHT22;6305;48.398;11.762;2023-03-01T07:08:17;-0.10;99.90
12481;DHT22;6305;48.398;11.762;2023-03-01T07:10:45;0.40;99.90
12481;DHT22;6305;48.398;11.762;2023-03-01T07:13:12;0.80;99.90
12481;DHT22;6305;48.398;11.762;2023-03-01T07:15:40;1.30;99.90
12481;DHT22;6305;48.398;11.762;2023-03-01T07:18:07;1.70;99.90
12481;DHT22;6305;48.398;11.762;2023-03-01T07:20:34;2.30;99.90
12481;DHT22;6305;48.398;11.762;2023-03-01T07:23:02;2.80;99.90
12481;DHT22;6305;48.398;11.762;2023-03-01T07:25:29;3.80;99.90
12481;DHT22;6305;48.398;11.762;2023-03-01T07:27:58;4.60;99.90
12481;DHT22;6305;48.398;11.762;2023-03-01T07:30:25;5.80;98.90
12481;DHT22;6305;48.398;11.762;2023-03-01T07:32:54;7.50;92.60
12481;DHT22;6305;48.398;11.762;2023-03-01T07:35:21;9.10;80.40
12481;DHT22;6305;48.398;11.762;2023-03-01T07:37:48;10.30;68.70
12481;DHT22;6305;48.398;11.762;2023-03-01T07:40:15;11.20;61.40
12481;DHT22;6305;48.398;11.762;2023-03-01T07:42:43;12.00;56.70
12481;DHT22;6305;48.398;11.762;2023-03-01T07:45:11;12.90;54.20
12481;DHT22;6305;48.398;11.762;2023-03-01T07:47:39;13.70;50.00
12481;DHT22;6305;48.398;11.762;2023-03-01T07:50:07;13.70;46.60
12481;DHT22;6305;48.398;11.762;2023-03-01T07:52:34;14.20;46.50
12481;DHT22;6305;48.398;11.762;2023-03-01T07:55:01;14.50;44.40
12481;DHT22;6305;48.398;11.762;2023-03-01T07:57:27;14.80;43.20
12481;DHT22;6305;48.398;11.762;2023-03-01T07:59:54;14.30;42.30
12481;DHT22;6305;48.398;11.762;2023-03-01T08:02:23;14.30;41.80
12481;DHT22;6305;48.398;11.762;2023-03-01T08:04:50;14.50;40.50
12481;DHT22;6305;48.398;11.762;2023-03-01T08:07:17;14.70;40.00
12481;DHT22;6305;48.398;11.762;2023-03-01T08:09:44;14.80;38.90
12481;DHT22;6305;48.398;11.762;2023-03-01T08:12:11;15.10;39.30
12481;DHT22;6305;48.398;11.762;2023-03-01T08:14:37;15.70;38.80
12481;DHT22;6305;48.398;11.762;2023-03-01T08:17:04;16.00;38.30
12481;DHT22;6305;48.398;11.762;2023-03-01T08:19:33;16.20;37.40
12481;DHT22;6305;48.398;11.762;2023-03-01T08:22:01;16.60;37.30
12481;DHT22;6305;48.398;11.762;2023-03-01T08:24:28;16.80;36.70
12481;DHT22;6305;48.398;11.762;2023-03-01T08:26:55;16.80;35.10
12481;DHT22;6305;48.398;11.762;2023-03-01T08:29:22;16.90;35.30
12481;DHT22;6305;48.398;11.762;2023-03-01T08:31:50;17.30;35.60
12481;DHT22;6305;48.398;11.762;2023-03-01T08:34:18;18.20;35.40
12481;DHT22;6305;48.398;11.762;2023-03-01T08:36:46;18.70;33.80
12481;DHT22;6305;48.398;11.762;2023-03-01T08:39:15;18.70;31.90
12481;DHT22;6305;48.398;11.762;2023-03-01T08:41:42;18.60;31.90
12481;DHT22;6305;48.398;11.762;2023-03-01T08:44:10;18.60;32.00
12481;DHT22;6305;48.398;11.762;2023-03-01T08:46:39;18.60;31.20
12481;DHT22;6305;48.398;11.762;2023-03-01T08:49:08;18.30;31.50
12481;DHT22;6305;48.398;11.762;2023-03-01T08:51:35;18.40;31.80
12481;DHT22;6305;48.398;11.762;2023-03-01T08:54:05;18.00;31.90
12481;DHT22;6305;48.398;11.762;2023-03-01T08:56:33;18.10;32.00
12481;DHT22;6305;48.398;11.762;2023-03-01T08:59:00;18.00;32.50
12481;DHT22;6305;48.398;11.762;2023-03-01T09:01:27;17.80;31.40
12481;DHT22;6305;48.398;11.762;2023-03-01T09:03:55;17.80;31.90
12481;DHT22;6305;48.398;11.762;2023-03-01T09:06:22;17.90;31.80
12481;DHT22;6305;48.398;11.762;2023-03-01T09:08:49;17.90;32.00
12481;DHT22;6305;48.398;11.762;2023-03-01T09:11:21;18.10;32.00
12481;DHT22;6305;48.398;11.762;2023-03-01T09:13:48;18.30;32.10
12481;DHT22;6305;48.398;11.762;2023-03-01T09:16:17;18.50;31.70
12481;DHT22;6305;48.398;11.762;2023-03-01T09:18:44;19.00;31.90
12481;DHT22;6305;48.398;11.762;2023-03-01T09:21:14;19.40;30.80
12481;DHT22;6305;48.398;11.762;2023-03-01T09:23:43;19.90;30.80
12481;DHT22;6305;48.398;11.762;2023-03-01T09:26:13;20.00;30.00
12481;DHT22;6305;48.398;11.762;2023-03-01T09:28:43;20.80;30.40
12481;DHT22;6305;48.398;11.762;2023-03-01T09:31:11;21.10;29.30
12481;DHT22;6305;48.398;11.762;2023-03-01T09:33:40;21.20;28.80
12481;DHT22;6305;48.398;11.762;2023-03-01T09:36:10;21.20;28.90
12481;DHT22;6305;48.398;11.762;2023-03-01T09:38:38;21.10;28.80
12481;DHT22;6305;48.398;11.762;2023-03-01T09:41:10;21.10;28.60
12481;DHT22;6305;48.398;11.762;2023-03-01T09:43:44;21.20;28.80
12481;DHT22;6305;48.398;11.762;2023-03-01T09:46:13;21.50;28.80
12481;DHT22;6305;48.398;11.762;2023-03-01T09:48:44;21.40;28.70
12481;DHT22;6305;48.398;11.762;2023-03-01T09:51:16;21.30;28.40
12481;DHT22;6305;48.398;11.762;2023-03-01T09:53:45;21.50;28.30
12481;DHT22;6305;48.398;11.762;2023-03-01T09:56:17;21.60;28.40
12481;DHT22;6305;48.398;11.762;2023-03-01T09:58:53;21.70;28.50
12481;DHT22;6305;48.398;11.762;2023-03-01T10:01:35;21.90;28.50
12481;DHT22;6305;48.398;11.762;2023-03-01T10:04:21;22.40;28.30
12481;DHT22;6305;48.398;11.762;2023-03-01T10:07:00;22.20;27.40
12481;DHT22;6305;48.398;11.762;2023-03-01T10:09:30;22.00;27.50
12481;DHT22;6305;48.398;11.762;2023-03-01T10:12:02;22.00;27.40
12481;DHT22;6305;48.398;11.762;2023-03-01T10:14:36;21.60;27.40
12481;DHT22;6305;48.398;11.762;2023-03-01T10:17:08;21.70;27.90
12481;DHT22;6305;48.398;11.762;2023-03-01T10:19:40;21.70;27.60
12481;DHT22;6305;48.398;11.762;2023-03-01T10:22:13;21.60;27.90
12481;DHT22;6305;48.398;11.762;2023-03-01T10:24:42;22.00;28.00
12481;DHT22;6305;48.398;11.762;2023-03-01T10:27:16;22.00;27.60
12481;DHT22;6305;48.398;11.762;2023-03-01T10:29:50;22.10;27.50
12481;DHT22;6305;48.398;11.762;2023-03-01T10:32:22;22.10;27.40
12481;DHT22;6305;48.398;11.762;2023-03-01T10:34:48;22.40;27.70
12481;DHT22;6305;48.398;11.762;2023-03-01T10:37:18;22.70;27.40
12481;DHT22;6305;48.398;11.762;2023-03-01T10:40:01;22.90;27.40
12481;DHT22;6305;48.398;11.762;2023-03-01T10:42:35;23.40;27.50
12481;DHT22;6305;48.398;11.762;2023-03-01T10:45:27;23.60;26.70
12481;DHT22;6305;48.398;11.762;2023-03-01T10:48:11;23.50;26.20
12481;DHT22;6305;48.398;11.762;2023-03-01T10:50:40;23.00;26.50
12481;DHT22;6305;48.398;11.762;2023-03-01T10:53:20;23.30;26.70
12481;DHT22;6305;48.398;11.762;2023-03-01T10:55:57;23.70;25.90
12481;DHT22;6305;48.398;11.762;2023-03-01T10:58:25;23.30;26.10
12481;DHT22;6305;48.398;11.762;2023-03-01T11:00:54;22.90;26.20
12481;DHT22;6305;48.398;11.762;2023-03-01T11:03:24;22.80;26.60
12481;DHT22;6305;48.398;11.762;2023-03-01T11:05:56;23.30;26.90
12481;DHT22;6305;48.398;11.762;2023-03-01T11:08:33;23.50;26.40
12481;DHT22;6305;48.398;11.762;2023-03-01T11:11:24;23.80;26.20
12481;DHT22;6305;48.398;11.762;2023-03-01T11:13:58;24.20;26.40
12481;DHT22;6305;48.398;11.762;2023-03-01T11:16:32;24.40;26.00
12481;DHT22;6305;48.398;11.762;2023-03-01T11:21:58;24.80;26.30
12481;DHT22;6305;48.398;11.762;2023-03-01T11:24:34;24.80;25.40
12481;DHT22;6305;48.398;11.762;2023-03-01T11:27:06;24.60;24.80
12481;DHT22;6305;48.398;11.762;2023-03-01T11:29:38;24.50;25.20
12481;DHT22;6305;48.398;11.762;2023-03-01T11:32:11;24.00;25.30
12481;DHT22;6305;48.398;11.762;2023-03-01T11:34:43;24.20;26.00
12481;DHT22;6305;48.398;11.762;2023-03-01T11:37:26;24.40;25.70
12481;DHT22;6305;48.398;11.762;2023-03-01T11:40:01;24.10;25.70
12481;DHT22;6305;48.398;11.762;2023-03-01T11:42:42;24.20;26.10
12481;DHT22;6305;48.398;11.762;2023-03-01T11:45:13;24.90;26.00
12481;DHT22;6305;48.398;11.762;2023-03-01T11:48:04;25.40;25.60
12481;DHT22;6305;48.398;11.762;2023-03-01T11:50:41;26.00;25.10
12481;DHT22;6305;48.398;11.762;2023-03-01T11:53:27;26.40;24.50
12481;DHT22;6305;48.398;11.762;2023-03-01T11:56:04;26.00;24.20
12481;DHT22;6305;48.398;11.762;2023-03-01T11:58:43;26.00;24.60
12481;DHT22;6305;48.398;11.762;2023-03-01T12:01:32;26.20;24.20
12481;DHT22;6305;48.398;11.762;2023-03-01T12:04:24;26.20;24.20
12481;DHT22;6305;48.398;11.762;2023-03-01T12:06:57;25.80;24.10
12481;DHT22;6305;48.398;11.762;2023-03-01T12:09:57;25.50;24.30
12481;DHT22;6305;48.398;11.762;2023-03-01T12:12:32;25.30;25.00
12481;DHT22;6305;48.398;11.762;2023-03-01T12:15:18;25.50;24.90
12481;DHT22;6305;48.398;11.762;2023-03-01T12:18:06;26.10;24.90
12481;DHT22;6305;48.398;11.762;2023-03-01T12:20:42;26.50;24.40
12481;DHT22;6305;48.398;11.762;2023-03-01T12:23:34;26.90;24.10
12481;DHT22;6305;48.398;11.762;2023-03-01T12:26:09;26.70;23.70
12481;DHT22;6305;48.398;11.762;2023-03-01T12:29:00;26.80;23.60
12481;DHT22;6305;48.398;11.762;2023-03-01T12:31:42;26.30;23.80
12481;DHT22;6305;48.398;11.762;2023-03-01T12:37:20;26.70;24.30
12481;DHT22;6305;48.398;11.762;2023-03-01T12:40:01;26.90;24.00
12481;DHT22;6305;48.398;11.762;2023-03-01T12:42:35;26.80;23.60
12481;DHT22;6305;48.398;11.762;2023-03-01T12:45:31;26.40;23.50
12481;DHT22;6305;48.398;11.762;2023-03-01T12:48:13;25.70;23.70
12481;DHT22;6305;48.398;11.762;2023-03-01T12:50:47;25.00;24.10
12481;DHT22;6305;48.398;11.762;2023-03-01T12:53:22;24.40;25.00
12481;DHT22;6305;48.398;11.762;2023-03-01T12:55:51;24.30;25.60
12481;DHT22;6305;48.398;11.762;2023-03-01T12:58:24;24.50;25.40
12481;DHT22;6305;48.398;11.762;2023-03-01T13:01:04;24.20;25.50
12481;DHT22;6305;48.398;11.762;2023-03-01T13:03:42;24.10;25.70
12481;DHT22;6305;48.398;11.762;2023-03-01T13:06:21;24.50;26.00
12481;DHT22;6305;48.398;11.762;2023-03-01T13:08:56;24.40;25.30
12481;DHT22;6305;48.398;11.762;2023-03-01T13:11:27;24.00;25.60
12481;DHT22;6305;48.398;11.762;2023-03-01T13:16:57;23.50;26.30
12481;DHT22;6305;48.398;11.762;2023-03-01T13:19:26;23.60;26.50
12481;DHT22;6305;48.398;11.762;2023-03-01T13:21:55;23.90;26.50
12481;DHT22;6305;48.398;11.762;2023-03-01T13:24:29;24.30;26.60
12481;DHT22;6305;48.398;11.762;2023-03-01T13:27:22;24.60;26.20
12481;DHT22;6305;48.398;11.762;2023-03-01T13:29:57;24.70;25.80
12481;DHT22;6305;48.398;11.762;2023-03-01T13:32:27;24.70;25.20
12481;DHT22;6305;48.398;11.762;2023-03-01T13:34:57;24.30;25.60
12481;DHT22;6305;48.398;11.762;2023-03-01T13:37:35;24.00;26.00
12481;DHT22;6305;48.398;11.762;2023-03-01T13:43:31;23.30;26.20
12481;DHT22;6305;48.398;11.762;2023-03-01T13:45:59;22.80;26.70
12481;DHT22;6305;48.398;11.762;2023-03-01T13:48:29;22.50;26.80
12481;DHT22;6305;48.398;11.762;2023-03-01T13:50:59;22.40;27.60
12481;DHT22;6305;48.398;11.762;2023-03-01T13:53:33;22.70;27.60
12481;DHT22;6305;48.398;11.762;2023-03-01T13:56:07;22.70;27.30
12481;DHT22;6305;48.398;11.762;2023-03-01T13:58:48;22.70;27.50
12481;DHT22;6305;48.398;11.762;2023-03-01T14:01:24;22.70;27.70
12481;DHT22;6305;48.398;11.762;2023-03-01T14:03:54;22.80;28.10
12481;DHT22;6305;48.398;11.762;2023-03-01T14:06:24;22.70;27.60
12481;DHT22;6305;48.398;11.762;2023-03-01T14:09:04;22.40;27.80
12481;DHT22;6305;48.398;11.762;2023-03-01T14:12:06;22.40;28.10
12481;DHT22;6305;48.398;11.762;2023-03-01T14:14:48;22.40;28.10
12481;DHT22;6305;48.398;11.762;2023-03-01T14:17:29;22.40;28.10
12481;DHT22;6305;48.398;11.762;2023-03-01T14:20:02;22.20;28.40
12481;DHT22;6305;48.398;11.762;2023-03-01T14:22:33;22.00;28.10
12481;DHT22;6305;48.398;11.762;2023-03-01T14:25:19;21.80;28.80
12481;DHT22;6305;48.398;11.762;2023-03-01T14:27:59;21.90;29.00
12481;DHT22;6305;48.398;11.762;2023-03-01T14:30:32;22.10;29.50
12481;DHT22;6305;48.398;11.762;2023-03-01T14:33:03;22.50;28.90
12481;DHT22;6305;48.398;11.762;2023-03-01T14:35:32;22.50;28.60
12481;DHT22;6305;48.398;11.762;2023-03-01T14:38:00;22.40;28.50
12481;DHT22;6305;48.398;11.762;2023-03-01T14:40:29;22.30;28.60
12481;DHT22;6305;48.398;11.762;2023-03-01T14:42:59;21.90;28.70
12481;DHT22;6305;48.398;11.762;2023-03-01T14:45:31;21.50;29.00
12481;DHT22;6305;48.398;11.762;2023-03-01T14:48:00;21.30;29.50
12481;DHT22;6305;48.398;11.762;2023-03-01T14:50:30;21.20;29.40
12481;DHT22;6305;48.398;11.762;2023-03-01T14:52:59;20.90;29.90
12481;DHT22;6305;48.398;11.762;2023-03-01T14:55:30;20.70;30.40
12481;DHT22;6305;48.398;11.762;2023-03-01T14:57:58;20.60;30.40
12481;DHT22;6305;48.398;11.762;2023-03-01T15:00:27;20.30;30.20
12481;DHT22;6305;48.398;11.762;2023-03-01T15:02:58;20.00;30.90
12481;DHT22;6305;48.398;11.762;2023-03-01T15:05:29;20.20;31.20
12481;DHT22;6305;48.398;11.762;2023-03-01T15:07:57;20.10;31.40
12481;DHT22;6305;48.398;11.762;2023-03-01T15:10:28;20.00;31.50
12481;DHT22;6305;48.398;11.762;2023-03-01T15:12:56;19.90;31.70
12481;DHT22;6305;48.398;11.762;2023-03-01T15:15:38;19.50;31.80
12481;DHT22;6305;48.398;11.762;2023-03-01T15:18:18;18.80;32.00
12481;DHT22;6305;48.398;11.762;2023-03-01T15:20:46;18.50;33.60
12481;DHT22;6305;48.398;11.762;2023-03-01T15:23:21;18.30;34.10
12481;DHT22;6305;48.398;11.762;2023-03-01T15:25:49;18.10;34.20
12481;DHT22;6305;48.398;11.762;2023-03-01T15:28:24;17.80;34.40
12481;DHT22;6305;48.398;11.762;2023-03-01T15:30:55;17.30;34.70
12481;DHT22;6305;48.398;11.762;2023-03-01T15:33:36;16.70;35.50
12481;DHT22;6305;48.398;11.762;2023-03-01T15:36:32;15.40;36.40
12481;DHT22;6305;48.398;11.762;2023-03-01T15:39:00;13.70;39.00
12481;DHT22;6305;48.398;11.762;2023-03-01T15:41:30;12.40;41.60
12481;DHT22;6305;48.398;11.762;2023-03-01T15:43:58;11.40;44.20
12481;DHT22;6305;48.398;11.762;2023-03-01T15:46:28;10.60;46.10
12481;DHT22;6305;48.398;11.762;2023-03-01T15:49:00;10.00;47.80
12481;DHT22;6305;48.398;11.762;2023-03-01T15:51:31;9.60;50.30
12481;DHT22;6305;48.398;11.762;2023-03-01T15:54:00;9.30;51.90
12481;DHT22;6305;48.398;11.762;2023-03-01T15:56:28;9.00;53.20
12481;DHT22;6305;48.398;11.762;2023-03-01T15:58:58;8.70;54.10
12481;DHT22;6305;48.398;11.762;2023-03-01T16:01:26;8.50;54.90
12481;DHT22;6305;48.398;11.762;2023-03-01T16:03:53;8.40;56.30
12481;DHT22;6305;48.398;11.762;2023-03-01T16:06:23;8.20;57.10
12481;DHT22;6305;48.398;11.762;2023-03-01T16:08:50;8.10;58.10
12481;DHT22;6305;48.398;11.762;2023-03-01T16:11:19;7.90;59.00